sensor_id;sensor_type;location;lat;lon;timestamp;P1;durP1;ratioP1;P2;durP2;ratioP2
70908;SDS011;58554;52.006;5.926;2024-01-07T00:00:53;32.50;;;12.30;;
70908;SDS011;58554;52.006;5.926;2024-01-07T00:03:19;30.83;;;12.15;;
70908;SDS011;58554;52.006;5.926;2024-01-07T00:05:46;33.47;;;12.63;;
70908;SDS011;58554;52.006;5.926;2024-01-07T00:08:12;35.23;;;13.43;;
70908;SDS011;58554;52.006;5.926;2024-01-07T00:10:39;32.97;;;13.17;;
70908;SDS011;58554;52.006;5.926;2024-01-07T00:13:05;35.47;;;13.77;;
70908;SDS011;58554;52.006;5.926;2024-01-07T00:15:31;32.05;;;12.70;;
70908;SDS011;58554;52.006;5.926;2024-01-07T00:18:01;35.08;;;13.93;;
70908;SDS011;58554;52.006;5.926;2024-01-07T00:20:27;34.63;;;14.15;;
70908;SDS011;58554;52.006;5.926;2024-01-07T00:22:54;37.63;;;14.15;;
70908;SDS011;58554;52.006;5.926;2024-01-07T00:25:20;37.92;;;13.55;;
70908;SDS011;58554;52.006;5.926;2024-01-07T00:27:47;39.38;;;14.50;;
70908;SDS011;58554;52.006;5.926;2024-01-07T00:30:13;39.63;;;14.45;;
70908;SDS011;58554;52.006;5.926;2024-01-07T00:32:40;36.03;;;13.47;;
70908;SDS011;58554;52.006;5.926;2024-01-07T00:35:09;35.58;;;13.68;;
70908;SDS011;58554;52.006;5.926;2024-01-07T00:37:35;38.60;;;13.87;;
70908;SDS011;58554;52.006;5.926;2024-01-07T00:40:02;44.03;;;15.10;;
70908;SDS011;58554;52.006;5.926;2024-01-07T00:42:30;41.40;;;16.15;;
70908;SDS011;58554;52.006;5.926;2024-01-07T00:44:57;40.03;;;14.10;;
70908;SDS011;58554;52.006;5.926;2024-01-07T00:47:23;43.27;;;15.27;;
70908;SDS011;58554;52.006;5.926;2024-01-07T00:49:50;37.70;;;13.68;;
70908;SDS011;58554;52.006;5.926;2024-01-07T00:52:19;37.83;;;13.70;;
70908;SDS011;58554;52.006;5.926;2024-01-07T00:54:46;36.00;;;14.23;;
70908;SDS011;58554;52.006;5.926;2024-01-07T00:57:12;35.57;;;13.00;;
70908;SDS011;58554;52.006;5.926;2024-01-07T00:59:38;37.63;;;13.32;;
70908;SDS011;58554;52.006;5.926;2024-01-07T01:02:05;31.75;;;13.05;;
70908;SDS011;58554;52.006;5.926;2024-01-07T01:04:31;39.17;;;14.43;;
70908;SDS011;58554;52.006;5.926;2024-01-07T01:06:58;38.22;;;13.60;;
70908;SDS011;58554;52.006;5.926;2024-01-07T01:09:27;42.83;;;16.60;;
70908;SDS011;58554;52.006;5.926;2024-01-07T01:11:54;37.75;;;14.82;;
70908;SDS011;58554;52.006;5.926;2024-01-07T01:14:20;36.28;;;13.50;;
70908;SDS011;58554;52.006;5.926;2024-01-07T01:16:47;35.45;;;13.45;;
70908;SDS011;58554;52.006;5.926;2024-01-07T01:19:13;30.07;;;12.53;;
70908;SDS011;58554;52.006;5.926;2024-01-07T01:21:39;31.83;;;12.27;;
70908;SDS011;58554;52.006;5.926;2024-01-07T01:24:06;31.35;;;12.18;;
70908;SDS011;58554;52.006;5.926;2024-01-07T01:26:35;36.27;;;12.93;;
70908;SDS011;58554;52.006;5.926;2024-01-07T01:29:01;33.37;;;12.80;;
70908;SDS011;58554;52.006;5.926;2024-01-07T01:31:28;33.25;;;13.63;;
70908;SDS011;58554;52.006;5.926;2024-01-07T01:33:54;31.70;;;12.90;;
70908;SDS011;58554;52.006;5.926;2024-01-07T01:36:21;32.15;;;13.25;;
70908;SDS011;58554;52.006;5.926;2024-01-07T01:38:47;35.55;;;13.93;;
70908;SDS011;58554;52.006;5.926;2024-01-07T01:41:14;33.03;;;13.57;;
70908;SDS011;58554;52.006;5.926;2024-01-07T01:43:43;31.27;;;12.45;;
70908;SDS011;58554;52.006;5.926;2024-01-07T01:46:09;34.87;;;13.37;;
70908;SDS011;58554;52.006;5.926;2024-01-07T01:48:39;35.77;;;13.70;;
70908;SDS011;58554;52.006;5.926;2024-01-07T01:51:07;34.57;;;13.67;;
70908;SDS011;58554;52.006;5.926;2024-01-07T01:53:34;30.60;;;12.20;;
70908;SDS011;58554;52.006;5.926;2024-01-07T01:56:01;38.65;;;14.63;;
70908;SDS011;58554;52.006;5.926;2024-01-07T01:58:28;36.20;;;13.00;;
70908;SDS011;58554;52.006;5.926;2024-01-07T02:00:58;33.37;;;12.33;;
70908;SDS011;58554;52.006;5.926;2024-01-07T02:03:25;30.90;;;11.87;;
70908;SDS011;58554;52.006;5.926;2024-01-07T02:05:52;36.33;;;14.30;;
70908;SDS011;58554;52.006;5.926;2024-01-07T02:08:19;37.87;;;14.23;;
70908;SDS011;58554;52.006;5.926;2024-01-07T02:10:46;32.73;;;12.00;;
70908;SDS011;58554;52.006;5.926;2024-01-07T02:13:13;34.60;;;13.93;;
70908;SDS011;58554;52.006;5.926;2024-01-07T02:15:39;34.37;;;12.87;;
70908;SDS011;58554;52.006;5.926;2024-01-07T02:18:08;34.80;;;13.55;;
70908;SDS011;58554;52.006;5.926;2024-01-07T02:20:35;37.13;;;13.80;;
70908;SDS011;58554;52.006;5.926;2024-01-07T02:23:02;34.20;;;12.77;;
70908;SDS011;58554;52.006;5.926;2024-01-07T02:25:34;36.72;;;14.35;;
70908;SDS011;58554;52.006;5.926;2024-01-07T02:28:01;40.00;;;13.52;;
70908;SDS011;58554;52.006;5.926;2024-01-07T02:30:28;37.58;;;14.18;;
70908;SDS011;58554;52.006;5.926;2024-01-07T02:32:54;35.97;;;13.15;;
70908;SDS011;58554;52.006;5.926;2024-01-07T02:35:21;35.33;;;13.75;;
70908;SDS011;58554;52.006;5.926;2024-01-07T02:37:47;40.53;;;13.40;;
70908;SDS011;58554;52.006;5.926;2024-01-07T02:40:14;38.13;;;12.02;;
70908;SDS011;58554;52.006;5.926;2024-01-07T02:42:43;32.95;;;12.75;;
70908;SDS011;58554;52.006;5.926;2024-01-07T02:45:10;37.97;;;13.93;;
70908;SDS011;58554;52.006;5.926;2024-01-07T02:47:36;35.13;;;13.27;;
70908;SDS011;58554;52.006;5.926;2024-01-07T02:50:03;29.63;;;12.65;;
70908;SDS011;58554;52.006;5.926;2024-01-07T02:52:31;32.63;;;12.83;;
70908;SDS011;58554;52.006;5.926;2024-01-07T02:54:58;36.80;;;13.65;;
70908;SDS011;58554;52.006;5.926;2024-01-07T02:57:25;35.75;;;13.70;;
70908;SDS011;58554;52.006;5.926;2024-01-07T02:59:54;35.27;;;13.60;;
70908;SDS011;58554;52.006;5.926;2024-01-07T03:02:20;29.50;;;12.60;;
70908;SDS011;58554;52.006;5.926;2024-01-07T03:04:47;27.38;;;11.05;;
70908;SDS011;58554;52.006;5.926;2024-01-07T03:07:13;29.20;;;11.63;;
70908;SDS011;58554;52.006;5.926;2024-01-07T03:09:40;34.83;;;12.87;;
70908;SDS011;58554;52.006;5.926;2024-01-07T03:12:06;27.90;;;11.33;;
70908;SDS011;58554;52.006;5.926;2024-01-07T03:14:33;29.97;;;11.73;;
70908;SDS011;58554;52.006;5.926;2024-01-07T03:17:02;25.40;;;11.10;;
70908;SDS011;58554;52.006;5.926;2024-01-07T03:19:29;30.67;;;10.77;;
70908;SDS011;58554;52.006;5.926;2024-01-07T03:21:56;29.33;;;11.07;;
70908;SDS011;58554;52.006;5.926;2024-01-07T03:24:22;29.87;;;11.47;;
70908;SDS011;58554;52.006;5.926;2024-01-07T03:26:49;26.00;;;10.23;;
70908;SDS011;58554;52.006;5.926;2024-01-07T03:29:15;25.20;;;11.52;;
70908;SDS011;58554;52.006;5.926;2024-01-07T03:31:42;26.52;;;10.93;;
70908;SDS011;58554;52.006;5.926;2024-01-07T03:34:11;27.58;;;12.10;;
70908;SDS011;58554;52.006;5.926;2024-01-07T03:36:37;28.02;;;11.68;;
70908;SDS011;58554;52.006;5.926;2024-01-07T03:39:04;25.53;;;9.80;;
70908;SDS011;58554;52.006;5.926;2024-01-07T03:41:30;24.73;;;10.52;;
70908;SDS011;58554;52.006;5.926;2024-01-07T03:43:57;25.98;;;11.35;;
70908;SDS011;58554;52.006;5.926;2024-01-07T03:46:23;25.07;;;10.53;;
70908;SDS011;58554;52.006;5.926;2024-01-07T03:48:49;30.83;;;12.23;;
70908;SDS011;58554;52.006;5.926;2024-01-07T03:51:19;25.85;;;11.10;;
70908;SDS011;58554;52.006;5.926;2024-01-07T03:53:45;28.95;;;11.38;;
70908;SDS011;58554;52.006;5.926;2024-01-07T03:56:12;26.57;;;11.17;;
70908;SDS011;58554;52.006;5.926;2024-01-07T03:58:38;27.73;;;11.40;;
70908;SDS011;58554;52.006;5.926;2024-01-07T04:01:05;24.47;;;11.50;;
70908;SDS011;58554;52.006;5.926;2024-01-07T04:03:31;25.83;;;12.00;;
70908;SDS011;58554;52.006;5.926;2024-01-07T04:05:57;26.50;;;12.00;;
70908;SDS011;58554;52.006;5.926;2024-01-07T04:08:26;27.50;;;11.73;;
70908;SDS011;58554;52.006;5.926;2024-01-07T04:10:53;27.50;;;11.70;;
70908;SDS011;58554;52.006;5.926;2024-01-07T04:13:19;28.03;;;12.30;;
70908;SDS011;58554;52.006;5.926;2024-01-07T04:15:46;30.13;;;12.13;;
70908;SDS011;58554;52.006;5.926;2024-01-07T04:18:12;29.40;;;11.83;;
70908;SDS011;58554;52.006;5.926;2024-01-07T04:20:39;28.17;;;11.27;;
70908;SDS011;58554;52.006;5.926;2024-01-07T04:23:05;30.90;;;12.40;;
70908;SDS011;58554;52.006;5.926;2024-01-07T04:25:34;27.58;;;12.20;;
70908;SDS011;58554;52.006;5.926;2024-01-07T04:28:01;27.07;;;11.93;;
70908;SDS011;58554;52.006;5.926;2024-01-07T04:30:27;28.97;;;11.70;;
70908;SDS011;58554;52.006;5.926;2024-01-07T04:32:54;29.17;;;13.10;;
70908;SDS011;58554;52.006;5.926;2024-01-07T04:35:20;28.75;;;12.65;;
70908;SDS011;58554;52.006;5.926;2024-01-07T04:37:47;24.35;;;11.07;;
70908;SDS011;58554;52.006;5.926;2024-01-07T04:40:13;33.90;;;13.30;;
70908;SDS011;58554;52.006;5.926;2024-01-07T04:42:42;26.67;;;11.38;;
70908;SDS011;58554;52.006;5.926;2024-01-07T04:45:09;31.17;;;12.07;;
70908;SDS011;58554;52.006;5.926;2024-01-07T04:47:35;28.58;;;12.52;;
70908;SDS011;58554;52.006;5.926;2024-01-07T04:50:02;29.33;;;12.43;;
70908;SDS011;58554;52.006;5.926;2024-01-07T04:52:31;28.60;;;12.68;;
70908;SDS011;58554;52.006;5.926;2024-01-07T04:54:57;28.80;;;12.75;;
70908;SDS011;58554;52.006;5.926;2024-01-07T04:57:24;29.83;;;11.93;;
70908;SDS011;58554;52.006;5.926;2024-01-07T04:59:53;28.30;;;12.13;;
70908;SDS011;58554;52.006;5.926;2024-01-07T05:02:20;30.85;;;11.98;;
70908;SDS011;58554;52.006;5.926;2024-01-07T05:04:46;31.77;;;12.13;;
70908;SDS011;58554;52.006;5.926;2024-01-07T05:07:13;29.07;;;11.43;;
70908;SDS011;58554;52.006;5.926;2024-01-07T05:09:39;25.52;;;12.13;;
70908;SDS011;58554;52.006;5.926;2024-01-07T05:12:06;31.73;;;12.75;;
70908;SDS011;58554;52.006;5.926;2024-01-07T05:14:32;24.90;;;11.60;;
70908;SDS011;58554;52.006;5.926;2024-01-07T05:17:02;26.02;;;11.32;;
70908;SDS011;58554;52.006;5.926;2024-01-07T05:19:29;27.38;;;11.20;;
70908;SDS011;58554;52.006;5.926;2024-01-07T05:21:56;24.63;;;11.15;;
70908;SDS011;58554;52.006;5.926;2024-01-07T05:24:22;31.50;;;11.50;;
70908;SDS011;58554;52.006;5.926;2024-01-07T05:26:49;26.48;;;11.25;;
70908;SDS011;58554;52.006;5.926;2024-01-07T05:29:15;28.00;;;11.40;;
70908;SDS011;58554;52.006;5.926;2024-01-07T05:31:41;25.87;;;11.30;;
70908;SDS011;58554;52.006;5.926;2024-01-07T05:34:11;26.10;;;11.70;;
70908;SDS011;58554;52.006;5.926;2024-01-07T05:36:37;24.73;;;10.88;;
70908;SDS011;58554;52.006;5.926;2024-01-07T05:39:04;26.60;;;11.43;;
70908;SDS011;58554;52.006;5.926;2024-01-07T05:41:30;27.10;;;10.85;;
70908;SDS011;58554;52.006;5.926;2024-01-07T05:43:57;29.80;;;12.07;;
70908;SDS011;58554;52.006;5.926;2024-01-07T05:46:23;26.03;;;11.57;;
70908;SDS011;58554;52.006;5.926;2024-01-07T05:48:50;25.55;;;11.07;;
70908;SDS011;58554;52.006;5.926;2024-01-07T05:51:19;25.90;;;11.37;;
70908;SDS011;58554;52.006;5.926;2024-01-07T05:53:45;27.60;;;12.00;;
70908;SDS011;58554;52.006;5.926;2024-01-07T05:56:12;24.92;;;11.90;;
70908;SDS011;58554;52.006;5.926;2024-01-07T05:58:38;28.35;;;12.35;;
70908;SDS011;58554;52.006;5.926;2024-01-07T06:01:06;30.37;;;13.03;;
70908;SDS011;58554;52.006;5.926;2024-01-07T06:03:34;25.33;;;11.27;;
70908;SDS011;58554;52.006;5.926;2024-01-07T06:06:01;26.93;;;10.63;;
70908;SDS011;58554;52.006;5.926;2024-01-07T06:08:30;29.00;;;11.27;;
70908;SDS011;58554;52.006;5.926;2024-01-07T06:10:56;22.63;;;9.98;;
70908;SDS011;58554;52.006;5.926;2024-01-07T06:13:23;21.80;;;10.60;;
70908;SDS011;58554;52.006;5.926;2024-01-07T06:15:49;25.03;;;11.60;;
70908;SDS011;58554;52.006;5.926;2024-01-07T06:18:16;28.25;;;11.38;;
70908;SDS011;58554;52.006;5.926;2024-01-07T06:20:42;26.87;;;11.90;;
70908;SDS011;58554;52.006;5.926;2024-01-07T06:23:09;23.15;;;11.68;;
70908;SDS011;58554;52.006;5.926;2024-01-07T06:25:38;28.47;;;12.00;;
70908;SDS011;58554;52.006;5.926;2024-01-07T06:28:04;23.73;;;10.73;;
70908;SDS011;58554;52.006;5.926;2024-01-07T06:30:31;24.00;;;10.67;;
70908;SDS011;58554;52.006;5.926;2024-01-07T06:32:58;25.02;;;10.25;;
70908;SDS011;58554;52.006;5.926;2024-01-07T06:35:24;26.15;;;10.88;;
70908;SDS011;58554;52.006;5.926;2024-01-07T06:37:51;23.10;;;11.07;;
70908;SDS011;58554;52.006;5.926;2024-01-07T06:40:17;24.23;;;10.38;;
70908;SDS011;58554;52.006;5.926;2024-01-07T06:42:46;26.25;;;10.32;;
70908;SDS011;58554;52.006;5.926;2024-01-07T06:45:13;24.05;;;10.70;;
70908;SDS011;58554;52.006;5.926;2024-01-07T06:47:40;25.48;;;11.15;;
70908;SDS011;58554;52.006;5.926;2024-01-07T06:50:07;22.50;;;10.52;;
70908;SDS011;58554;52.006;5.926;2024-01-07T06:52:36;27.50;;;10.63;;
70908;SDS011;58554;52.006;5.926;2024-01-07T06:55:03;25.40;;;10.67;;
70908;SDS011;58554;52.006;5.926;2024-01-07T06:57:30;25.87;;;11.30;;
70908;SDS011;58554;52.006;5.926;2024-01-07T06:59:59;26.43;;;11.07;;
70908;SDS011;58554;52.006;5.926;2024-01-07T07:02:26;24.75;;;11.05;;
70908;SDS011;58554;52.006;5.926;2024-01-07T07:04:52;23.77;;;10.33;;
70908;SDS011;58554;52.006;5.926;2024-01-07T07:07:18;24.03;;;10.30;;
70908;SDS011;58554;52.006;5.926;2024-01-07T07:09:45;26.87;;;11.10;;
70908;SDS011;58554;52.006;5.926;2024-01-07T07:12:12;22.90;;;10.57;;
70908;SDS011;58554;52.006;5.926;2024-01-07T07:14:38;25.23;;;11.20;;
70908;SDS011;58554;52.006;5.926;2024-01-07T07:17:07;26.67;;;12.73;;
70908;SDS011;58554;52.006;5.926;2024-01-07T07:19:34;27.27;;;12.00;;
70908;SDS011;58554;52.006;5.926;2024-01-07T07:22:00;24.83;;;10.87;;
70908;SDS011;58554;52.006;5.926;2024-01-07T07:24:27;19.67;;;9.65;;
70908;SDS011;58554;52.006;5.926;2024-01-07T07:26:53;24.07;;;10.53;;
70908;SDS011;58554;52.006;5.926;2024-01-07T07:29:20;23.73;;;10.07;;
70908;SDS011;58554;52.006;5.926;2024-01-07T07:31:46;24.57;;;11.43;;
70908;SDS011;58554;52.006;5.926;2024-01-07T07:34:15;22.75;;;10.50;;
70908;SDS011;58554;52.006;5.926;2024-01-07T07:36:42;22.15;;;10.70;;
70908;SDS011;58554;52.006;5.926;2024-01-07T07:39:08;24.80;;;9.50;;
70908;SDS011;58554;52.006;5.926;2024-01-07T07:41:35;20.13;;;10.07;;
70908;SDS011;58554;52.006;5.926;2024-01-07T07:44:01;25.08;;;10.18;;
70908;SDS011;58554;52.006;5.926;2024-01-07T07:46:28;22.88;;;10.15;;
70908;SDS011;58554;52.006;5.926;2024-01-07T07:48:54;20.83;;;9.83;;
70908;SDS011;58554;52.006;5.926;2024-01-07T07:51:23;21.45;;;9.52;;
70908;SDS011;58554;52.006;5.926;2024-01-07T07:53:50;23.33;;;10.02;;
70908;SDS011;58554;52.006;5.926;2024-01-07T07:56:16;20.20;;;9.30;;
70908;SDS011;58554;52.006;5.926;2024-01-07T07:58:43;23.40;;;11.00;;
70908;SDS011;58554;52.006;5.926;2024-01-07T08:01:09;25.77;;;10.73;;
70908;SDS011;58554;52.006;5.926;2024-01-07T08:03:36;19.47;;;9.50;;
70908;SDS011;58554;52.006;5.926;2024-01-07T08:06:02;23.03;;;10.27;;
70908;SDS011;58554;52.006;5.926;2024-01-07T08:08:33;22.77;;;10.00;;
70908;SDS011;58554;52.006;5.926;2024-01-07T08:10:59;18.40;;;8.90;;
70908;SDS011;58554;52.006;5.926;2024-01-07T08:13:25;17.57;;;8.97;;
70908;SDS011;58554;52.006;5.926;2024-01-07T08:15:52;20.23;;;8.93;;
70908;SDS011;58554;52.006;5.926;2024-01-07T08:18:18;19.10;;;9.32;;
70908;SDS011;58554;52.006;5.926;2024-01-07T08:20:45;18.70;;;9.53;;
70908;SDS011;58554;52.006;5.926;2024-01-07T08:23:11;20.10;;;8.47;;
70908;SDS011;58554;52.006;5.926;2024-01-07T08:25:40;18.50;;;8.47;;
70908;SDS011;58554;52.006;5.926;2024-01-07T08:28:07;21.13;;;9.30;;
70908;SDS011;58554;52.006;5.926;2024-01-07T08:30:33;18.10;;;8.33;;
70908;SDS011;58554;52.006;5.926;2024-01-07T08:33:00;16.63;;;7.93;;
70908;SDS011;58554;52.006;5.926;2024-01-07T08:35:26;17.10;;;8.73;;
70908;SDS011;58554;52.006;5.926;2024-01-07T08:37:53;17.98;;;8.93;;
70908;SDS011;58554;52.006;5.926;2024-01-07T08:40:19;17.87;;;8.13;;
70908;SDS011;58554;52.006;5.926;2024-01-07T08:42:48;17.80;;;7.88;;
70908;SDS011;58554;52.006;5.926;2024-01-07T08:45:15;18.67;;;8.53;;
70908;SDS011;58554;52.006;5.926;2024-01-07T08:47:41;21.63;;;9.02;;
70908;SDS011;58554;52.006;5.926;2024-01-07T08:50:08;17.73;;;8.65;;
70908;SDS011;58554;52.006;5.926;2024-01-07T08:52:35;19.30;;;8.87;;
70908;SDS011;58554;52.006;5.926;2024-01-07T08:55:01;19.77;;;9.03;;
70908;SDS011;58554;52.006;5.926;2024-01-07T08:57:28;17.67;;;8.33;;
70908;SDS011;58554;52.006;5.926;2024-01-07T08:59:57;19.73;;;8.47;;
70908;SDS011;58554;52.006;5.926;2024-01-07T09:02:24;20.23;;;9.87;;
70908;SDS011;58554;52.006;5.926;2024-01-07T09:04:50;19.60;;;8.85;;
70908;SDS011;58554;52.006;5.926;2024-01-07T09:07:17;18.83;;;9.37;;
70908;SDS011;58554;52.006;5.926;2024-01-07T09:09:43;20.02;;;8.98;;
70908;SDS011;58554;52.006;5.926;2024-01-07T09:12:10;19.75;;;9.40;;
70908;SDS011;58554;52.006;5.926;2024-01-07T09:14:37;17.67;;;8.70;;
70908;SDS011;58554;52.006;5.926;2024-01-07T09:17:06;18.17;;;8.02;;
70908;SDS011;58554;52.006;5.926;2024-01-07T09:19:33;18.00;;;8.52;;
70908;SDS011;58554;52.006;5.926;2024-01-07T09:21:59;18.70;;;9.25;;
70908;SDS011;58554;52.006;5.926;2024-01-07T09:24:25;17.45;;;8.02;;
70908;SDS011;58554;52.006;5.926;2024-01-07T09:26:52;16.27;;;8.43;;
70908;SDS011;58554;52.006;5.926;2024-01-07T09:29:18;19.90;;;8.27;;
70908;SDS011;58554;52.006;5.926;2024-01-07T09:31:45;16.73;;;8.50;;
70908;SDS011;58554;52.006;5.926;2024-01-07T09:34:14;17.40;;;8.43;;
70908;SDS011;58554;52.006;5.926;2024-01-07T09:36:40;17.25;;;7.88;;
70908;SDS011;58554;52.006;5.926;2024-01-07T09:39:07;17.00;;;7.93;;
70908;SDS011;58554;52.006;5.926;2024-01-07T09:41:33;15.20;;;7.45;;
70908;SDS011;58554;52.006;5.926;2024-01-07T09:44:00;16.90;;;7.85;;
70908;SDS011;58554;52.006;5.926;2024-01-07T09:46:29;17.33;;;7.30;;
70908;SDS011;58554;52.006;5.926;2024-01-07T09:48:57;17.40;;;7.15;;
70908;SDS011;58554;52.006;5.926;2024-01-07T09:51:27;17.65;;;7.10;;
70908;SDS011;58554;52.006;5.926;2024-01-07T09:54:02;14.90;;;7.43;;
70908;SDS011;58554;52.006;5.926;2024-01-07T09:56:35;19.10;;;7.70;;
70908;SDS011;58554;52.006;5.926;2024-01-07T09:59:08;14.50;;;7.17;;
70908;SDS011;58554;52.006;5.926;2024-01-07T10:01:35;18.23;;;6.77;;
70908;SDS011;58554;52.006;5.926;2024-01-07T10:04:03;14.23;;;7.20;;
70908;SDS011;58554;52.006;5.926;2024-01-07T10:06:32;15.03;;;6.43;;
70908;SDS011;58554;52.006;5.926;2024-01-07T10:08:59;14.10;;;6.40;;
70908;SDS011;58554;52.006;5.926;2024-01-07T10:11:25;14.63;;;6.25;;
70908;SDS011;58554;52.006;5.926;2024-01-07T10:13:51;12.85;;;6.10;;
70908;SDS011;58554;52.006;5.926;2024-01-07T10:16:19;13.97;;;7.27;;
70908;SDS011;58554;52.006;5.926;2024-01-07T10:18:46;12.37;;;5.93;;
70908;SDS011;58554;52.006;5.926;2024-01-07T10:21:12;13.47;;;6.40;;
70908;SDS011;58554;52.006;5.926;2024-01-07T10:23:41;13.23;;;6.55;;
70908;SDS011;58554;52.006;5.926;2024-01-07T10:26:08;12.33;;;6.93;;
70908;SDS011;58554;52.006;5.926;2024-01-07T10:28:35;13.10;;;6.20;;
70908;SDS011;58554;52.006;5.926;2024-01-07T10:31:03;14.17;;;6.03;;
70908;SDS011;58554;52.006;5.926;2024-01-07T10:33:30;14.20;;;6.73;;
70908;SDS011;58554;52.006;5.926;2024-01-07T10:36:00;11.73;;;6.03;;
70908;SDS011;58554;52.006;5.926;2024-01-07T10:38:30;12.13;;;5.90;;
70908;SDS011;58554;52.006;5.926;2024-01-07T10:41:00;11.45;;;5.97;;
70908;SDS011;58554;52.006;5.926;2024-01-07T10:43:30;12.15;;;5.93;;
70908;SDS011;58554;52.006;5.926;2024-01-07T10:46:00;12.60;;;5.67;;
70908;SDS011;58554;52.006;5.926;2024-01-07T10:48:27;11.60;;;5.72;;
70908;SDS011;58554;52.006;5.926;2024-01-07T10:50:57;11.50;;;5.80;;
70908;SDS011;58554;52.006;5.926;2024-01-07T10:53:27;9.90;;;5.13;;
70908;SDS011;58554;52.006;5.926;2024-01-07T10:56:03;8.82;;;5.25;;
70908;SDS011;58554;52.006;5.926;2024-01-07T10:58:33;11.45;;;5.25;;
70908;SDS011;58554;52.006;5.926;2024-01-07T11:01:02;10.43;;;5.43;;
70908;SDS011;58554;52.006;5.926;2024-01-07T11:03:32;11.10;;;5.40;;
70908;SDS011;58554;52.006;5.926;2024-01-07T11:06:07;8.57;;;5.40;;
70908;SDS011;58554;52.006;5.926;2024-01-07T11:08:50;10.53;;;5.63;;
70908;SDS011;58554;52.006;5.926;2024-01-07T11:11:27;11.50;;;5.28;;
70908;SDS011;58554;52.006;5.926;2024-01-07T11:14:04;11.50;;;5.47;;
70908;SDS011;58554;52.006;5.926;2024-01-07T11:16:40;11.47;;;5.03;;
70908;SDS011;58554;52.006;5.926;2024-01-07T11:19:08;12.15;;;4.70;;
70908;SDS011;58554;52.006;5.926;2024-01-07T11:21:35;10.93;;;5.18;;
70908;SDS011;58554;52.006;5.926;2024-01-07T11:24:01;11.33;;;5.53;;
70908;SDS011;58554;52.006;5.926;2024-01-07T11:26:31;7.37;;;4.23;;
70908;SDS011;58554;52.006;5.926;2024-01-07T11:28:57;9.45;;;4.95;;
70908;SDS011;58554;52.006;5.926;2024-01-07T11:34:11;6.97;;;3.70;;
70908;SDS011;58554;52.006;5.926;2024-01-07T11:37:04;7.90;;;4.20;;
70908;SDS011;58554;52.006;5.926;2024-01-07T11:39:36;7.97;;;4.20;;
70908;SDS011;58554;52.006;5.926;2024-01-07T11:42:05;8.80;;;4.03;;
70908;SDS011;58554;52.006;5.926;2024-01-07T11:44:35;8.73;;;4.15;;
70908;SDS011;58554;52.006;5.926;2024-01-07T11:47:02;8.50;;;3.97;;
70908;SDS011;58554;52.006;5.926;2024-01-07T11:49:29;6.57;;;3.80;;
70908;SDS011;58554;52.006;5.926;2024-01-07T11:51:55;6.78;;;3.90;;
70908;SDS011;58554;52.006;5.926;2024-01-07T11:54:22;6.03;;;3.40;;
70908;SDS011;58554;52.006;5.926;2024-01-07T11:56:49;8.73;;;4.05;;
70908;SDS011;58554;52.006;5.926;2024-01-07T11:59:18;6.60;;;3.77;;
70908;SDS011;58554;52.006;5.926;2024-01-07T12:01:44;7.90;;;3.80;;
70908;SDS011;58554;52.006;5.926;2024-01-07T12:04:10;5.93;;;3.30;;
70908;SDS011;58554;52.006;5.926;2024-01-07T12:06:37;6.97;;;3.47;;
70908;SDS011;58554;52.006;5.926;2024-01-07T12:09:04;7.50;;;4.23;;
70908;SDS011;58554;52.006;5.926;2024-01-07T12:11:31;7.27;;;3.67;;
70908;SDS011;58554;52.006;5.926;2024-01-07T12:13:57;6.77;;;3.63;;
70908;SDS011;58554;52.006;5.926;2024-01-07T12:16:27;7.47;;;3.55;;
70908;SDS011;58554;52.006;5.926;2024-01-07T12:18:55;6.13;;;3.20;;
70908;SDS011;58554;52.006;5.926;2024-01-07T12:21:21;5.80;;;3.53;;
70908;SDS011;58554;52.006;5.926;2024-01-07T12:23:48;6.53;;;3.27;;
70908;SDS011;58554;52.006;5.926;2024-01-07T12:26:16;5.65;;;3.15;;
70908;SDS011;58554;52.006;5.926;2024-01-07T12:28:42;5.97;;;2.83;;
70908;SDS011;58554;52.006;5.926;2024-01-07T12:31:09;4.90;;;2.57;;
70908;SDS011;58554;52.006;5.926;2024-01-07T12:33:39;6.27;;;3.33;;
70908;SDS011;58554;52.006;5.926;2024-01-07T12:36:06;6.90;;;3.17;;
70908;SDS011;58554;52.006;5.926;2024-01-07T12:38:33;4.80;;;2.90;;
70908;SDS011;58554;52.006;5.926;2024-01-07T12:41:03;5.70;;;2.55;;
70908;SDS011;58554;52.006;5.926;2024-01-07T12:43:30;5.45;;;2.75;;
70908;SDS011;58554;52.006;5.926;2024-01-07T12:45:57;5.78;;;2.90;;
70908;SDS011;58554;52.006;5.926;2024-01-07T12:48:23;4.68;;;2.58;;
70908;SDS011;58554;52.006;5.926;2024-01-07T12:50:53;6.10;;;3.25;;
70908;SDS011;58554;52.006;5.926;2024-01-07T12:53:19;5.20;;;2.57;;
70908;SDS011;58554;52.006;5.926;2024-01-07T12:55:46;5.40;;;2.63;;
70908;SDS011;58554;52.006;5.926;2024-01-07T12:58:12;4.33;;;2.60;;
70908;SDS011;58554;52.006;5.926;2024-01-07T13:00:39;4.40;;;2.80;;
70908;SDS011;58554;52.006;5.926;2024-01-07T13:03:05;5.07;;;2.73;;
70908;SDS011;58554;52.006;5.926;2024-01-07T13:05:32;5.20;;;3.03;;
70908;SDS011;58554;52.006;5.926;2024-01-07T13:08:01;7.27;;;3.33;;
70908;SDS011;58554;52.006;5.926;2024-01-07T13:10:28;5.20;;;2.93;;
70908;SDS011;58554;52.006;5.926;2024-01-07T13:12:54;5.90;;;3.13;;
70908;SDS011;58554;52.006;5.926;2024-01-07T13:15:21;4.35;;;2.72;;
70908;SDS011;58554;52.006;5.926;2024-01-07T13:17:47;6.73;;;3.13;;
70908;SDS011;58554;52.006;5.926;2024-01-07T13:20:14;7.15;;;3.00;;
70908;SDS011;58554;52.006;5.926;2024-01-07T13:22:40;5.97;;;2.72;;
70908;SDS011;58554;52.006;5.926;2024-01-07T13:25:10;4.73;;;2.70;;
70908;SDS011;58554;52.006;5.926;2024-01-07T13:27:36;6.77;;;3.20;;
70908;SDS011;58554;52.006;5.926;2024-01-07T13:30:03;5.67;;;2.93;;
70908;SDS011;58554;52.006;5.926;2024-01-07T13:32:32;5.70;;;3.03;;
70908;SDS011;58554;52.006;5.926;2024-01-07T13:34:58;4.32;;;2.70;;
70908;SDS011;58554;52.006;5.926;2024-01-07T13:37:25;5.22;;;2.70;;
70908;SDS011;58554;52.006;5.926;2024-01-07T13:39:51;4.20;;;2.30;;
70908;SDS011;58554;52.006;5.926;2024-01-07T13:42:20;4.10;;;2.60;;
70908;SDS011;58554;52.006;5.926;2024-01-07T13:44:47;5.93;;;2.83;;
70908;SDS011;58554;52.006;5.926;2024-01-07T13:47:13;5.22;;;2.88;;
70908;SDS011;58554;52.006;5.926;2024-01-07T13:49:40;5.07;;;2.65;;
70908;SDS011;58554;52.006;5.926;2024-01-07T13:52:07;3.47;;;2.05;;
70908;SDS011;58554;52.006;5.926;2024-01-07T13:54:33;3.03;;;2.07;;
70908;SDS011;58554;52.006;5.926;2024-01-07T13:57:00;4.63;;;2.50;;
70908;SDS011;58554;52.006;5.926;2024-01-07T13:59:29;5.07;;;2.70;;
70908;SDS011;58554;52.006;5.926;2024-01-07T14:01:55;5.40;;;2.43;;
70908;SDS011;58554;52.006;5.926;2024-01-07T14:04:22;3.90;;;2.50;;
70908;SDS011;58554;52.006;5.926;2024-01-07T14:06:53;4.65;;;2.30;;
70908;SDS011;58554;52.006;5.926;2024-01-07T14:09:20;3.97;;;2.57;;
70908;SDS011;58554;52.006;5.926;2024-01-07T14:11:46;4.10;;;2.40;;
70908;SDS011;58554;52.006;5.926;2024-01-07T14:14:13;3.40;;;2.33;;
70908;SDS011;58554;52.006;5.926;2024-01-07T14:16:42;3.80;;;2.25;;
70908;SDS011;58554;52.006;5.926;2024-01-07T14:19:08;5.77;;;2.47;;
70908;SDS011;58554;52.006;5.926;2024-01-07T14:21:35;3.23;;;2.30;;
70908;SDS011;58554;52.006;5.926;2024-01-07T14:24:01;3.63;;;2.30;;
70908;SDS011;58554;52.006;5.926;2024-01-07T14:26:28;4.78;;;2.25;;
70908;SDS011;58554;52.006;5.926;2024-01-07T14:28:55;4.05;;;2.08;;
70908;SDS011;58554;52.006;5.926;2024-01-07T14:31:21;3.65;;;2.42;;
70908;SDS011;58554;52.006;5.926;2024-01-07T14:33:50;3.42;;;2.25;;